RYR6826 LZIB-EPGD
Flight info
| Callsign | RYR6826 |
|---|---|
| Flight time | 1h 8m |
| Altitude | 35000 |
| Route | BERVA P10 MAVOR DCT UPLAV DCT DESEN DCT ARMEX L617 XIDNA DCT ATMIR P733 IRLUN |
| Aircraft | B738/M-SDE2E3FGHIRWXY/LB1 |
Departure
| Time | 2026-05-06 09:06 |
|---|---|
| Airport | M. R. Štefánik Airport (LZIB) |
Arrival
| Time | 2026-05-06 10:14 |
|---|---|
| Airport | Gdańsk Lech Wałęsa Airport (EPGD) |
| Time | Latitude | Longitude | Altitude | Speed | Heading |
|---|---|---|---|---|---|
| 2026-05-06 08:41 | 48.16974 | 17.20174 | 431 ft | 0 kts | 314° |
| 2026-05-06 08:57 | 48.16966 | 17.20186 | 424 ft | 4 kts | 321° |
| 2026-05-06 08:58 | 48.16943 | 17.20205 | 421 ft | 4 kts | 351° |
| 2026-05-06 08:58 | 48.16918 | 17.20203 | 431 ft | 4 kts | 25° |
| 2026-05-06 08:58 | 48.16897 | 17.20182 | 431 ft | 2 kts | 44° |
| 2026-05-06 08:58 | 48.16895 | 17.20180 | 427 ft | 0 kts | 44° |
| 2026-05-06 09:03 | 48.16896 | 17.20181 | 431 ft | 1 kts | 43° |
| 2026-05-06 09:03 | 48.16928 | 17.20228 | 427 ft | 11 kts | 44° |
| 2026-05-06 09:03 | 48.17008 | 17.20345 | 424 ft | 20 kts | 44° |
| 2026-05-06 09:03 | 48.17114 | 17.20501 | 428 ft | 21 kts | 44° |
| 2026-05-06 09:04 | 48.17233 | 17.20544 | 430 ft | 19 kts | 320° |
| 2026-05-06 09:04 | 48.17327 | 17.20405 | 426 ft | 19 kts | 315° |
| 2026-05-06 09:04 | 48.17431 | 17.20300 | 420 ft | 18 kts | 356° |
| 2026-05-06 09:04 | 48.17531 | 17.20386 | 427 ft | 17 kts | 65° |
| 2026-05-06 09:05 | 48.17479 | 17.20536 | 423 ft | 17 kts | 133° |
| 2026-05-06 09:05 | 48.17286 | 17.20835 | 427 ft | 75 kts | 134° |
| 2026-05-06 09:05 | 48.16777 | 17.21636 | 424 ft | 138 kts | 133° |
| 2026-05-06 09:05 | 48.16002 | 17.22844 | 728 ft | 167 kts | 134° |
| 2026-05-06 09:06 | 48.15156 | 17.24071 | 1404 ft | 172 kts | 135° |
| 2026-05-06 09:06 | 48.14309 | 17.25312 | 2221 ft | 172 kts | 134° |
| 2026-05-06 09:06 | 48.13414 | 17.26706 | 2595 ft | 201 kts | 132° |
| 2026-05-06 09:06 | 48.12422 | 17.28305 | 3024 ft | 216 kts | 131° |
| 2026-05-06 09:07 | 48.11644 | 17.30258 | 3542 ft | 226 kts | 109° |
| 2026-05-06 09:07 | 48.11410 | 17.32621 | 4175 ft | 235 kts | 89° |
| 2026-05-06 09:07 | 48.11513 | 17.35075 | 4902 ft | 240 kts | 76° |
| 2026-05-06 09:07 | 48.12387 | 17.37201 | 5609 ft | 245 kts | 44° |
| 2026-05-06 09:08 | 48.13814 | 17.38579 | 6310 ft | 248 kts | 12° |
| 2026-05-06 09:08 | 48.15530 | 17.39066 | 6866 ft | 261 kts | 11° |
| 2026-05-06 09:08 | 48.17380 | 17.39744 | 7193 ft | 282 kts | 13° |
| 2026-05-06 09:08 | 48.19309 | 17.40485 | 7879 ft | 289 kts | 13° |
| 2026-05-06 09:09 | 48.21268 | 17.41230 | 8647 ft | 292 kts | 13° |
| 2026-05-06 09:09 | 48.23251 | 17.41972 | 9403 ft | 296 kts | 13° |
| 2026-05-06 09:09 | 48.25261 | 17.42718 | 10115 ft | 300 kts | 12° |
| 2026-05-06 09:09 | 48.27358 | 17.43488 | 10381 ft | 323 kts | 12° |
| 2026-05-06 09:10 | 48.29611 | 17.44311 | 10641 ft | 342 kts | 12° |
| 2026-05-06 09:10 | 48.31938 | 17.45162 | 11223 ft | 350 kts | 12° |
| 2026-05-06 09:10 | 48.34325 | 17.46035 | 11886 ft | 355 kts | 12° |
| 2026-05-06 09:10 | 48.36745 | 17.46920 | 12587 ft | 360 kts | 12° |
| 2026-05-06 09:11 | 48.39190 | 17.47815 | 13324 ft | 363 kts | 12° |
| 2026-05-06 09:11 | 48.41652 | 17.48716 | 14104 ft | 366 kts | 12° |
| 2026-05-06 09:11 | 48.44135 | 17.49624 | 14847 ft | 369 kts | 11° |
| 2026-05-06 09:11 | 48.46668 | 17.50393 | 15592 ft | 372 kts | 7° |
| 2026-05-06 09:12 | 48.49230 | 17.51023 | 16290 ft | 376 kts | 6° |
| 2026-05-06 09:12 | 48.51824 | 17.51630 | 16974 ft | 379 kts | 6° |
| 2026-05-06 09:12 | 48.54442 | 17.52254 | 17670 ft | 383 kts | 7° |
| 2026-05-06 09:12 | 48.57080 | 17.52906 | 18345 ft | 386 kts | 7° |
| 2026-05-06 09:13 | 48.59739 | 17.53574 | 18989 ft | 389 kts | 7° |
| 2026-05-06 09:13 | 48.62433 | 17.54159 | 19582 ft | 393 kts | 1° |
| 2026-05-06 09:13 | 48.65169 | 17.54233 | 20189 ft | 395 kts | 356° |
| 2026-05-06 09:13 | 48.67921 | 17.54139 | 20827 ft | 397 kts | 355° |
| 2026-05-06 09:14 | 48.70699 | 17.54032 | 21373 ft | 401 kts | 356° |
| 2026-05-06 09:14 | 48.73502 | 17.53941 | 21896 ft | 406 kts | 356° |
| 2026-05-06 09:14 | 48.76333 | 17.53880 | 22456 ft | 409 kts | 356° |
| 2026-05-06 09:14 | 48.79191 | 17.53836 | 23004 ft | 411 kts | 357° |
| 2026-05-06 09:15 | 48.82064 | 17.53796 | 23499 ft | 415 kts | 357° |
| 2026-05-06 09:15 | 48.84966 | 17.53749 | 23980 ft | 419 kts | 356° |
| 2026-05-06 09:15 | 48.87890 | 17.53691 | 24475 ft | 422 kts | 356° |
| 2026-05-06 09:15 | 48.90834 | 17.53631 | 24975 ft | 424 kts | 356° |
| 2026-05-06 09:16 | 48.93799 | 17.53570 | 25448 ft | 427 kts | 356° |
| 2026-05-06 09:16 | 48.96780 | 17.53508 | 25872 ft | 431 kts | 356° |
| 2026-05-06 09:16 | 48.99792 | 17.53448 | 26293 ft | 434 kts | 356° |
| 2026-05-06 09:16 | 49.02816 | 17.53386 | 26709 ft | 437 kts | 356° |
| 2026-05-06 09:17 | 49.05865 | 17.53325 | 27123 ft | 439 kts | 356° |
| 2026-05-06 09:17 | 49.08929 | 17.53265 | 27519 ft | 442 kts | 356° |
| 2026-05-06 09:17 | 49.12019 | 17.53204 | 27917 ft | 445 kts | 356° |
| 2026-05-06 09:17 | 49.15123 | 17.53142 | 28281 ft | 448 kts | 355° |
| 2026-05-06 09:18 | 49.18247 | 17.53080 | 28652 ft | 450 kts | 355° |
| 2026-05-06 09:18 | 49.21392 | 17.53017 | 29011 ft | 453 kts | 355° |
| 2026-05-06 09:18 | 49.24548 | 17.52954 | 29347 ft | 455 kts | 355° |
| 2026-05-06 09:18 | 49.27724 | 17.52890 | 29692 ft | 457 kts | 355° |
| 2026-05-06 09:19 | 49.30918 | 17.52827 | 29972 ft | 461 kts | 355° |
| 2026-05-06 09:19 | 49.34130 | 17.52767 | 30267 ft | 463 kts | 355° |
| 2026-05-06 09:19 | 49.36264 | 17.52737 | 30530 ft | 463 kts | 355° |
| 2026-05-06 09:19 | 49.39480 | 17.52702 | 31013 ft | 460 kts | 355° |
| 2026-05-06 09:20 | 49.42674 | 17.52672 | 31482 ft | 458 kts | 355° |
| 2026-05-06 09:20 | 49.45854 | 17.52641 | 31877 ft | 457 kts | 355° |
| 2026-05-06 09:20 | 49.49035 | 17.52608 | 32222 ft | 457 kts | 355° |
| 2026-05-06 09:20 | 49.52210 | 17.52573 | 32598 ft | 456 kts | 356° |
| 2026-05-06 09:21 | 49.55378 | 17.52537 | 33002 ft | 454 kts | 355° |
| 2026-05-06 09:21 | 49.58539 | 17.52501 | 33364 ft | 453 kts | 355° |
| 2026-05-06 09:21 | 49.61692 | 17.52465 | 33691 ft | 453 kts | 355° |
| 2026-05-06 09:21 | 49.64841 | 17.52428 | 34012 ft | 453 kts | 355° |
| 2026-05-06 09:22 | 49.67999 | 17.52391 | 34322 ft | 453 kts | 355° |
| 2026-05-06 09:22 | 49.71143 | 17.52356 | 34637 ft | 452 kts | 355° |
| 2026-05-06 09:22 | 49.74302 | 17.52319 | 34751 ft | 457 kts | 355° |
| 2026-05-06 09:23 | 49.80683 | 17.52241 | 34746 ft | 458 kts | 355° |
| 2026-05-06 09:23 | 49.87003 | 17.52174 | 34744 ft | 450 kts | 355° |
| 2026-05-06 09:24 | 49.93275 | 17.52100 | 34759 ft | 451 kts | 355° |
| 2026-05-06 09:24 | 49.99558 | 17.52022 | 34749 ft | 452 kts | 355° |
| 2026-05-06 09:25 | 50.05818 | 17.51948 | 34741 ft | 453 kts | 355° |
| 2026-05-06 09:25 | 50.12136 | 17.51875 | 34799 ft | 455 kts | 355° |
| 2026-05-06 09:26 | 50.18516 | 17.51800 | 34842 ft | 457 kts | 355° |
| 2026-05-06 09:26 | 50.24853 | 17.51726 | 34830 ft | 455 kts | 356° |
| 2026-05-06 09:27 | 50.31070 | 17.50698 | 34848 ft | 446 kts | 345° |
| 2026-05-06 09:27 | 50.37135 | 17.48701 | 34833 ft | 445 kts | 343° |
| 2026-05-06 09:28 | 50.43193 | 17.46676 | 34819 ft | 445 kts | 344° |
| 2026-05-06 09:28 | 50.49273 | 17.44716 | 34823 ft | 447 kts | 344° |
| 2026-05-06 09:29 | 50.55338 | 17.42796 | 34811 ft | 449 kts | 344° |
| 2026-05-06 09:29 | 50.61470 | 17.40860 | 34811 ft | 451 kts | 344° |
| 2026-05-06 09:30 | 50.67630 | 17.38909 | 34800 ft | 453 kts | 344° |
| 2026-05-06 09:30 | 50.73817 | 17.36944 | 34801 ft | 454 kts | 344° |
| 2026-05-06 09:31 | 50.80031 | 17.34961 | 34789 ft | 456 kts | 344° |
| 2026-05-06 09:31 | 50.86267 | 17.32967 | 34791 ft | 458 kts | 344° |
| 2026-05-06 09:32 | 50.92511 | 17.30963 | 34787 ft | 458 kts | 344° |
| 2026-05-06 09:32 | 50.98769 | 17.28952 | 34779 ft | 459 kts | 344° |
| 2026-05-06 09:33 | 51.05025 | 17.26935 | 34774 ft | 459 kts | 345° |
| 2026-05-06 09:33 | 51.11278 | 17.24914 | 34777 ft | 458 kts | 344° |
| 2026-05-06 09:34 | 51.17522 | 17.22889 | 34775 ft | 458 kts | 344° |
| 2026-05-06 09:34 | 51.23767 | 17.20860 | 34778 ft | 458 kts | 344° |
| 2026-05-06 09:35 | 51.30007 | 17.18826 | 34774 ft | 458 kts | 344° |
| 2026-05-06 09:35 | 51.36242 | 17.16787 | 34778 ft | 457 kts | 344° |
| 2026-05-06 09:36 | 51.42435 | 17.14759 | 34781 ft | 457 kts | 344° |
| 2026-05-06 09:36 | 51.48663 | 17.12704 | 34774 ft | 457 kts | 343° |
| 2026-05-06 09:37 | 51.54638 | 17.09528 | 34778 ft | 452 kts | 333° |
| 2026-05-06 09:37 | 51.60518 | 17.05683 | 34768 ft | 454 kts | 334° |
| 2026-05-06 09:38 | 51.66392 | 17.02083 | 34764 ft | 457 kts | 339° |
| 2026-05-06 09:38 | 51.69577 | 17.01064 | 34769 ft | 464 kts | 352° |
| 2026-05-06 09:38 | 51.72766 | 17.01043 | 34773 ft | 468 kts | 3° |
| 2026-05-06 09:39 | 51.79145 | 17.03330 | 34772 ft | 472 kts | 14° |
| 2026-05-06 09:39 | 51.85482 | 17.06150 | 34760 ft | 473 kts | 14° |
| 2026-05-06 09:40 | 51.91838 | 17.08925 | 34757 ft | 473 kts | 13° |
| 2026-05-06 09:40 | 52.01378 | 17.12973 | 34758 ft | 472 kts | 13° |
| 2026-05-06 09:41 | 52.07729 | 17.15652 | 34745 ft | 471 kts | 13° |
| 2026-05-06 09:41 | 52.14057 | 17.18343 | 34749 ft | 470 kts | 13° |
| 2026-05-06 09:42 | 52.20376 | 17.21033 | 34749 ft | 469 kts | 13° |
| 2026-05-06 09:42 | 52.26687 | 17.23721 | 34749 ft | 468 kts | 14° |
| 2026-05-06 09:43 | 52.32991 | 17.26426 | 34750 ft | 468 kts | 14° |
| 2026-05-06 09:43 | 52.39279 | 17.29130 | 34750 ft | 467 kts | 14° |
| 2026-05-06 09:44 | 52.45589 | 17.31851 | 34168 ft | 471 kts | 14° |
| 2026-05-06 09:44 | 52.48751 | 17.33217 | 33639 ft | 470 kts | 14° |
| 2026-05-06 09:44 | 52.51919 | 17.34586 | 33080 ft | 470 kts | 14° |
| 2026-05-06 09:45 | 52.55083 | 17.35956 | 32506 ft | 471 kts | 14° |
| 2026-05-06 09:45 | 52.58252 | 17.37331 | 31917 ft | 471 kts | 13° |
| 2026-05-06 09:45 | 52.61427 | 17.38711 | 31318 ft | 472 kts | 13° |
| 2026-05-06 09:45 | 52.64601 | 17.40093 | 30703 ft | 473 kts | 13° |
| 2026-05-06 09:46 | 52.67779 | 17.41479 | 30235 ft | 470 kts | 13° |
| 2026-05-06 09:46 | 52.70924 | 17.42852 | 29791 ft | 466 kts | 13° |
| 2026-05-06 09:46 | 52.74007 | 17.44200 | 29352 ft | 462 kts | 13° |
| 2026-05-06 09:46 | 52.77130 | 17.45658 | 28887 ft | 459 kts | 18° |
| 2026-05-06 09:47 | 52.80047 | 17.47732 | 28451 ft | 456 kts | 27° |
| 2026-05-06 09:47 | 52.82718 | 17.50510 | 28062 ft | 451 kts | 34° |
| 2026-05-06 09:47 | 52.85279 | 17.53480 | 27605 ft | 448 kts | 35° |
| 2026-05-06 09:47 | 52.87807 | 17.56458 | 27154 ft | 445 kts | 35° |
| 2026-05-06 09:48 | 52.90319 | 17.59418 | 26705 ft | 442 kts | 34° |
| 2026-05-06 09:48 | 52.92787 | 17.62308 | 26263 ft | 438 kts | 34° |
| 2026-05-06 09:48 | 52.95303 | 17.65237 | 25823 ft | 435 kts | 34° |
| 2026-05-06 09:48 | 52.97743 | 17.68066 | 25361 ft | 432 kts | 34° |
| 2026-05-06 09:49 | 53.00200 | 17.70909 | 24934 ft | 429 kts | 34° |
| 2026-05-06 09:49 | 53.02636 | 17.73729 | 24511 ft | 426 kts | 34° |
| 2026-05-06 09:49 | 53.05061 | 17.76538 | 24059 ft | 423 kts | 34° |
| 2026-05-06 09:49 | 53.07469 | 17.79332 | 23630 ft | 420 kts | 34° |
| 2026-05-06 09:50 | 53.09853 | 17.82105 | 23200 ft | 417 kts | 34° |
| 2026-05-06 09:50 | 53.12227 | 17.84867 | 22768 ft | 415 kts | 34° |
| 2026-05-06 09:50 | 53.14583 | 17.87612 | 22346 ft | 412 kts | 34° |
| 2026-05-06 09:50 | 53.16924 | 17.90343 | 21918 ft | 409 kts | 34° |
| 2026-05-06 09:51 | 53.19247 | 17.93058 | 21488 ft | 407 kts | 34° |
| 2026-05-06 09:51 | 53.21556 | 17.95761 | 21069 ft | 404 kts | 35° |
| 2026-05-06 09:51 | 53.23849 | 17.98449 | 20655 ft | 401 kts | 35° |
| 2026-05-06 09:51 | 53.26126 | 18.01121 | 20241 ft | 399 kts | 35° |
| 2026-05-06 09:52 | 53.28386 | 18.03778 | 19826 ft | 397 kts | 35° |
| 2026-05-06 09:52 | 53.30638 | 18.06428 | 19415 ft | 394 kts | 35° |
| 2026-05-06 09:52 | 53.32873 | 18.09061 | 19002 ft | 392 kts | 36° |
| 2026-05-06 09:52 | 53.35096 | 18.11682 | 18594 ft | 390 kts | 36° |
| 2026-05-06 09:53 | 53.37301 | 18.14287 | 18186 ft | 387 kts | 36° |
| 2026-05-06 09:53 | 53.39473 | 18.16929 | 17866 ft | 383 kts | 38° |
| 2026-05-06 09:53 | 53.41562 | 18.19657 | 17493 ft | 380 kts | 39° |
| 2026-05-06 09:53 | 53.43620 | 18.22412 | 17104 ft | 378 kts | 40° |
| 2026-05-06 09:54 | 53.45667 | 18.25158 | 16704 ft | 376 kts | 39° |
| 2026-05-06 09:54 | 53.47707 | 18.27882 | 16304 ft | 374 kts | 39° |
| 2026-05-06 09:54 | 53.49740 | 18.30584 | 15899 ft | 372 kts | 39° |
| 2026-05-06 09:54 | 53.51768 | 18.33275 | 15507 ft | 371 kts | 39° |
| 2026-05-06 09:55 | 53.53792 | 18.35955 | 15099 ft | 369 kts | 39° |
| 2026-05-06 09:55 | 53.55806 | 18.38623 | 14696 ft | 368 kts | 39° |
| 2026-05-06 09:55 | 53.57814 | 18.41288 | 14291 ft | 367 kts | 39° |
| 2026-05-06 09:55 | 53.59821 | 18.43923 | 13882 ft | 366 kts | 37° |
| 2026-05-06 09:56 | 53.61900 | 18.46390 | 13455 ft | 365 kts | 35° |
| 2026-05-06 09:56 | 53.64003 | 18.48767 | 13063 ft | 363 kts | 34° |
| 2026-05-06 09:56 | 53.66096 | 18.51126 | 12666 ft | 361 kts | 34° |
| 2026-05-06 09:56 | 53.68167 | 18.53487 | 12285 ft | 360 kts | 35° |
| 2026-05-06 09:57 | 53.70217 | 18.55846 | 12119 ft | 351 kts | 35° |
| 2026-05-06 09:57 | 53.72205 | 18.58135 | 11959 ft | 342 kts | 33° |
| 2026-05-06 09:57 | 53.74352 | 18.59699 | 11793 ft | 334 kts | 9° |
| 2026-05-06 09:57 | 53.76623 | 18.59766 | 11618 ft | 323 kts | 348° |
| 2026-05-06 09:58 | 53.78722 | 18.58648 | 11409 ft | 313 kts | 332° |
| 2026-05-06 09:58 | 53.80671 | 18.57066 | 11191 ft | 310 kts | 330° |
| 2026-05-06 09:58 | 53.82594 | 18.55430 | 10971 ft | 308 kts | 330° |
| 2026-05-06 09:58 | 53.84505 | 18.53800 | 10739 ft | 307 kts | 330° |
| 2026-05-06 09:59 | 53.86412 | 18.52178 | 10499 ft | 307 kts | 331° |
| 2026-05-06 09:59 | 53.88335 | 18.50570 | 10251 ft | 308 kts | 331° |
| 2026-05-06 09:59 | 53.90248 | 18.48959 | 9992 ft | 307 kts | 331° |
| 2026-05-06 09:59 | 53.92167 | 18.47345 | 9740 ft | 309 kts | 331° |
| 2026-05-06 10:00 | 53.94097 | 18.45742 | 9491 ft | 308 kts | 332° |
| 2026-05-06 10:00 | 53.96025 | 18.44143 | 9241 ft | 308 kts | 332° |
| 2026-05-06 10:00 | 53.97953 | 18.42541 | 8993 ft | 308 kts | 332° |
| 2026-05-06 10:00 | 53.99869 | 18.40942 | 8846 ft | 306 kts | 332° |
| 2026-05-06 10:01 | 54.01783 | 18.39339 | 8832 ft | 307 kts | 332° |
| 2026-05-06 10:01 | 54.03692 | 18.37737 | 8824 ft | 305 kts | 332° |
| 2026-05-06 10:01 | 54.05596 | 18.36137 | 8821 ft | 305 kts | 332° |
| 2026-05-06 10:01 | 54.07503 | 18.34532 | 8831 ft | 306 kts | 332° |
| 2026-05-06 10:02 | 54.09416 | 18.32918 | 8832 ft | 307 kts | 332° |
| 2026-05-06 10:02 | 54.11334 | 18.31302 | 8831 ft | 308 kts | 333° |
| 2026-05-06 10:02 | 54.13229 | 18.29704 | 8825 ft | 308 kts | 333° |
| 2026-05-06 10:02 | 54.15146 | 18.28087 | 8817 ft | 307 kts | 332° |
| 2026-05-06 10:03 | 54.17073 | 18.26459 | 8780 ft | 304 kts | 332° |
| 2026-05-06 10:03 | 54.18955 | 18.24867 | 8419 ft | 310 kts | 332° |
| 2026-05-06 10:03 | 54.20888 | 18.23229 | 7976 ft | 308 kts | 333° |
| 2026-05-06 10:03 | 54.22800 | 18.21613 | 7503 ft | 306 kts | 333° |
| 2026-05-06 10:04 | 54.24686 | 18.19997 | 7068 ft | 300 kts | 332° |
| 2026-05-06 10:04 | 54.26508 | 18.18319 | 6597 ft | 298 kts | 323° |
| 2026-05-06 10:04 | 54.27969 | 18.15885 | 6161 ft | 291 kts | 310° |
| 2026-05-06 10:04 | 54.29282 | 18.13256 | 5714 ft | 291 kts | 309° |
| 2026-05-06 10:05 | 54.30580 | 18.10652 | 5407 ft | 282 kts | 309° |
| 2026-05-06 10:05 | 54.31799 | 18.08170 | 5366 ft | 263 kts | 310° |
| 2026-05-06 10:05 | 54.32986 | 18.05823 | 5113 ft | 259 kts | 311° |
| 2026-05-06 10:05 | 54.33763 | 18.04299 | 5028 ft | 256 kts | 311° |
| 2026-05-06 10:06 | 54.34940 | 18.01984 | 5010 ft | 257 kts | 311° |
| 2026-05-06 10:06 | 54.36107 | 17.99689 | 4991 ft | 254 kts | 311° |
| 2026-05-06 10:06 | 54.37283 | 17.97376 | 4767 ft | 261 kts | 312° |
| 2026-05-06 10:06 | 54.38685 | 17.95443 | 4409 ft | 258 kts | 339° |
| 2026-05-06 10:07 | 54.40375 | 17.94946 | 4190 ft | 239 kts | 12° |
| 2026-05-06 10:07 | 54.41858 | 17.95878 | 4067 ft | 222 kts | 34° |
| 2026-05-06 10:07 | 54.43132 | 17.97331 | 3917 ft | 218 kts | 49° |
| 2026-05-06 10:07 | 54.43748 | 17.99596 | 3779 ft | 212 kts | 89° |
| 2026-05-06 10:08 | 54.43749 | 18.02136 | 3676 ft | 214 kts | 88° |
| 2026-05-06 10:08 | 54.43898 | 18.04703 | 3551 ft | 216 kts | 83° |
| 2026-05-06 10:08 | 54.44135 | 18.07232 | 3509 ft | 213 kts | 81° |
| 2026-05-06 10:08 | 54.44412 | 18.09713 | 3504 ft | 212 kts | 79° |
| 2026-05-06 10:09 | 54.44707 | 18.12185 | 3496 ft | 208 kts | 79° |
| 2026-05-06 10:09 | 54.45000 | 18.14534 | 3515 ft | 194 kts | 79° |
| 2026-05-06 10:09 | 54.45007 | 18.16742 | 3481 ft | 179 kts | 104° |
| 2026-05-06 10:09 | 54.44599 | 18.18679 | 3330 ft | 167 kts | 110° |
| 2026-05-06 10:10 | 54.44167 | 18.20464 | 3197 ft | 160 kts | 109° |
| 2026-05-06 10:10 | 54.43738 | 18.22204 | 3094 ft | 157 kts | 110° |
| 2026-05-06 10:10 | 54.43329 | 18.23934 | 2988 ft | 157 kts | 108° |
| 2026-05-06 10:10 | 54.42910 | 18.25682 | 2886 ft | 159 kts | 109° |
| 2026-05-06 10:11 | 54.42482 | 18.27444 | 2762 ft | 161 kts | 109° |
| 2026-05-06 10:11 | 54.42055 | 18.29231 | 2642 ft | 162 kts | 109° |
| 2026-05-06 10:11 | 54.41617 | 18.31012 | 2487 ft | 163 kts | 109° |
| 2026-05-06 10:11 | 54.41176 | 18.32803 | 2301 ft | 164 kts | 109° |
| 2026-05-06 10:12 | 54.40732 | 18.34587 | 2047 ft | 158 kts | 109° |
| 2026-05-06 10:12 | 54.40323 | 18.36238 | 1842 ft | 150 kts | 109° |
| 2026-05-06 10:12 | 54.39916 | 18.37887 | 1581 ft | 149 kts | 109° |
| 2026-05-06 10:12 | 54.39511 | 18.39525 | 1349 ft | 146 kts | 109° |
| 2026-05-06 10:13 | 54.39116 | 18.41119 | 1127 ft | 145 kts | 109° |
| 2026-05-06 10:13 | 54.38725 | 18.42701 | 901 ft | 146 kts | 109° |
| 2026-05-06 10:13 | 54.38324 | 18.44314 | 649 ft | 142 kts | 109° |
| 2026-05-06 10:13 | 54.37957 | 18.45826 | 457 ft | 137 kts | 110° |
| 2026-05-06 10:14 | 54.37652 | 18.47046 | 457 ft | 66 kts | 113° |
| 2026-05-06 10:14 | 54.37596 | 18.47419 | 463 ft | 22 kts | 92° |
| 2026-05-06 10:14 | 54.37607 | 18.47641 | 465 ft | 16 kts | 83° |
| 2026-05-06 10:14 | 54.37671 | 18.47686 | 465 ft | 13 kts | 309° |
| 2026-05-06 10:15 | 54.37710 | 18.47535 | 462 ft | 14 kts | 293° |
| 2026-05-06 10:15 | 54.37739 | 18.47420 | 460 ft | 0 kts | 293° |
| 2026-05-06 10:15 | 54.37741 | 18.47412 | 458 ft | 1 kts | 293° |
| 2026-05-06 10:15 | 54.37746 | 18.47389 | 459 ft | 3 kts | 293° |
| 2026-05-06 10:16 | 54.37756 | 18.47351 | 459 ft | 4 kts | 293° |
| 2026-05-06 10:16 | 54.37768 | 18.47301 | 459 ft | 5 kts | 293° |
| 2026-05-06 10:16 | 54.37781 | 18.47250 | 459 ft | 5 kts | 293° |
| 2026-05-06 10:16 | 54.37794 | 18.47200 | 459 ft | 5 kts | 293° |
| 2026-05-06 10:17 | 54.37806 | 18.47153 | 458 ft | 4 kts | 293° |
| 2026-05-06 10:17 | 54.37817 | 18.47107 | 458 ft | 4 kts | 293° |
| 2026-05-06 10:17 | 54.37830 | 18.47058 | 458 ft | 5 kts | 293° |
| 2026-05-06 10:17 | 54.37849 | 18.46980 | 458 ft | 9 kts | 294° |
| 2026-05-06 10:18 | 54.37880 | 18.46858 | 458 ft | 14 kts | 292° |
| 2026-05-06 10:18 | 54.37938 | 18.46740 | 458 ft | 13 kts | 0° |
| 2026-05-06 10:18 | 54.38010 | 18.46784 | 459 ft | 7 kts | 23° |
| 2026-05-06 10:18 | 54.38025 | 18.46795 | 459 ft | 0 kts | 23° |